sensor_id;sensor_type;location;lat;lon;timestamp;P1;durP1;ratioP1;P2;durP2;ratioP2
25936;SDS011;13733;51.178;4.450;2022-07-30T00:00:03;14.93;;;5.90;;
25936;SDS011;13733;51.178;4.450;2022-07-30T00:02:31;15.18;;;6.22;;
25936;SDS011;13733;51.178;4.450;2022-07-30T00:04:56;16.35;;;5.60;;
25936;SDS011;13733;51.178;4.450;2022-07-30T00:07:22;19.40;;;6.50;;
25936;SDS011;13733;51.178;4.450;2022-07-30T00:09:48;16.35;;;5.72;;
25936;SDS011;13733;51.178;4.450;2022-07-30T00:12:13;21.40;;;6.13;;
25936;SDS011;13733;51.178;4.450;2022-07-30T00:14:39;19.52;;;6.03;;
25936;SDS011;13733;51.178;4.450;2022-07-30T00:17:05;14.00;;;5.70;;
25936;SDS011;13733;51.178;4.450;2022-07-30T00:19:31;11.48;;;5.40;;
25936;SDS011;13733;51.178;4.450;2022-07-30T00:21:57;12.38;;;5.90;;
25936;SDS011;13733;51.178;4.450;2022-07-30T00:24:22;15.85;;;6.10;;
25936;SDS011;13733;51.178;4.450;2022-07-30T00:26:48;12.15;;;5.35;;
25936;SDS011;13733;51.178;4.450;2022-07-30T00:29:14;21.13;;;5.75;;
25936;SDS011;13733;51.178;4.450;2022-07-30T00:31:40;11.50;;;5.45;;
25936;SDS011;13733;51.178;4.450;2022-07-30T00:34:06;12.05;;;5.53;;
25936;SDS011;13733;51.178;4.450;2022-07-30T00:36:32;11.65;;;5.10;;
25936;SDS011;13733;51.178;4.450;2022-07-30T00:38:57;9.07;;;5.43;;
25936;SDS011;13733;51.178;4.450;2022-07-30T00:41:23;11.07;;;5.28;;
25936;SDS011;13733;51.178;4.450;2022-07-30T00:43:50;12.00;;;5.38;;
25936;SDS011;13733;51.178;4.450;2022-07-30T00:46:16;16.70;;;5.65;;
25936;SDS011;13733;51.178;4.450;2022-07-30T00:48:42;11.48;;;4.57;;
25936;SDS011;13733;51.178;4.450;2022-07-30T00:51:08;17.20;;;5.65;;
25936;SDS011;13733;51.178;4.450;2022-07-30T00:53:34;17.23;;;5.25;;
25936;SDS011;13733;51.178;4.450;2022-07-30T00:56:00;15.30;;;4.60;;
25936;SDS011;13733;51.178;4.450;2022-07-30T00:58:26;12.18;;;4.85;;
25936;SDS011;13733;51.178;4.450;2022-07-30T01:00:52;12.75;;;4.45;;
25936;SDS011;13733;51.178;4.450;2022-07-30T01:03:18;11.38;;;4.68;;
25936;SDS011;13733;51.178;4.450;2022-07-30T01:05:44;12.57;;;5.03;;
25936;SDS011;13733;51.178;4.450;2022-07-30T01:08:10;10.32;;;4.50;;
25936;SDS011;13733;51.178;4.450;2022-07-30T01:10:36;11.70;;;4.20;;
25936;SDS011;13733;51.178;4.450;2022-07-30T01:13:02;15.18;;;4.95;;
25936;SDS011;13733;51.178;4.450;2022-07-30T01:15:30;11.10;;;4.50;;
25936;SDS011;13733;51.178;4.450;2022-07-30T01:17:58;13.02;;;4.07;;
25936;SDS011;13733;51.178;4.450;2022-07-30T01:20:28;12.57;;;4.32;;
25936;SDS011;13733;51.178;4.450;2022-07-30T01:30:29;12.73;;;4.35;;
25936;SDS011;13733;51.178;4.450;2022-07-30T01:32:58;9.52;;;4.50;;
25936;SDS011;13733;51.178;4.450;2022-07-30T01:35:25;15.48;;;5.18;;
25936;SDS011;13733;51.178;4.450;2022-07-30T01:37:53;12.38;;;4.57;;
25936;SDS011;13733;51.178;4.450;2022-07-30T01:40:21;11.93;;;5.15;;
25936;SDS011;13733;51.178;4.450;2022-07-30T01:42:50;10.18;;;4.53;;
25936;SDS011;13733;51.178;4.450;2022-07-30T01:45:22;15.38;;;6.30;;
25936;SDS011;13733;51.178;4.450;2022-07-30T01:47:53;13.38;;;6.88;;
25936;SDS011;13733;51.178;4.450;2022-07-30T01:50:23;12.15;;;5.97;;
25936;SDS011;13733;51.178;4.450;2022-07-30T01:52:50;11.55;;;6.20;;
25936;SDS011;13733;51.178;4.450;2022-07-30T01:55:20;15.93;;;7.90;;
25936;SDS011;13733;51.178;4.450;2022-07-30T01:57:50;11.95;;;7.15;;
25936;SDS011;13733;51.178;4.450;2022-07-30T02:00:18;13.45;;;7.15;;
25936;SDS011;13733;51.178;4.450;2022-07-30T02:02:47;13.27;;;7.60;;
25936;SDS011;13733;51.178;4.450;2022-07-30T02:05:13;10.95;;;7.28;;
25936;SDS011;13733;51.178;4.450;2022-07-30T02:10:30;13.02;;;7.60;;
25936;SDS011;13733;51.178;4.450;2022-07-30T02:13:02;13.63;;;8.00;;
25936;SDS011;13733;51.178;4.450;2022-07-30T02:15:34;16.80;;;7.40;;
25936;SDS011;13733;51.178;4.450;2022-07-30T02:21:04;11.60;;;8.25;;
25936;SDS011;13733;51.178;4.450;2022-07-30T02:23:37;15.52;;;9.93;;
25936;SDS011;13733;51.178;4.450;2022-07-30T02:26:05;26.02;;;12.85;;
25936;SDS011;13733;51.178;4.450;2022-07-30T02:28:34;22.92;;;13.18;;
25936;SDS011;13733;51.178;4.450;2022-07-30T02:31:04;18.38;;;13.18;;
25936;SDS011;13733;51.178;4.450;2022-07-30T02:33:36;25.00;;;13.77;;
25936;SDS011;13733;51.178;4.450;2022-07-30T02:36:05;24.23;;;15.63;;
25936;SDS011;13733;51.178;4.450;2022-07-30T02:38:33;22.10;;;16.15;;
25936;SDS011;13733;51.178;4.450;2022-07-30T02:41:01;21.48;;;14.80;;
25936;SDS011;13733;51.178;4.450;2022-07-30T02:43:28;25.15;;;15.70;;
25936;SDS011;13733;51.178;4.450;2022-07-30T02:45:56;21.63;;;14.30;;
25936;SDS011;13733;51.178;4.450;2022-07-30T02:48:33;20.67;;;13.35;;
25936;SDS011;13733;51.178;4.450;2022-07-30T02:51:02;24.45;;;14.02;;
25936;SDS011;13733;51.178;4.450;2022-07-30T02:53:30;23.40;;;16.88;;
25936;SDS011;13733;51.178;4.450;2022-07-30T02:55:57;25.05;;;16.50;;
25936;SDS011;13733;51.178;4.450;2022-07-30T02:58:24;26.33;;;17.58;;
25936;SDS011;13733;51.178;4.450;2022-07-30T03:00:52;29.85;;;18.27;;
25936;SDS011;13733;51.178;4.450;2022-07-30T03:03:19;33.00;;;18.45;;
25936;SDS011;13733;51.178;4.450;2022-07-30T03:05:54;28.58;;;18.23;;
25936;SDS011;13733;51.178;4.450;2022-07-30T03:08:22;26.35;;;17.80;;
25936;SDS011;13733;51.178;4.450;2022-07-30T03:10:50;25.48;;;15.95;;
25936;SDS011;13733;51.178;4.450;2022-07-30T03:13:17;24.95;;;15.50;;
25936;SDS011;13733;51.178;4.450;2022-07-30T03:15:46;25.67;;;15.95;;
25936;SDS011;13733;51.178;4.450;2022-07-30T03:18:14;24.20;;;15.43;;
25936;SDS011;13733;51.178;4.450;2022-07-30T03:20:43;29.05;;;15.88;;
25936;SDS011;13733;51.178;4.450;2022-07-30T03:23:18;32.67;;;17.88;;
25936;SDS011;13733;51.178;4.450;2022-07-30T03:25:44;23.88;;;16.75;;
25936;SDS011;13733;51.178;4.450;2022-07-30T03:28:16;22.13;;;15.23;;
25936;SDS011;13733;51.178;4.450;2022-07-30T03:30:44;27.80;;;16.65;;
25936;SDS011;13733;51.178;4.450;2022-07-30T03:33:10;29.42;;;16.35;;
25936;SDS011;13733;51.178;4.450;2022-07-30T03:35:37;26.60;;;16.52;;
25936;SDS011;13733;51.178;4.450;2022-07-30T03:38:06;22.55;;;17.17;;
25936;SDS011;13733;51.178;4.450;2022-07-30T03:40:36;29.60;;;19.38;;
25936;SDS011;13733;51.178;4.450;2022-07-30T03:43:01;24.52;;;18.65;;
25936;SDS011;13733;51.178;4.450;2022-07-30T03:45:27;29.02;;;18.38;;
25936;SDS011;13733;51.178;4.450;2022-07-30T03:48:03;23.42;;;16.85;;
25936;SDS011;13733;51.178;4.450;2022-07-30T03:50:36;28.92;;;18.42;;
25936;SDS011;13733;51.178;4.450;2022-07-30T03:53:05;33.05;;;19.90;;
25936;SDS011;13733;51.178;4.450;2022-07-30T03:55:41;22.92;;;17.30;;
25936;SDS011;13733;51.178;4.450;2022-07-30T03:58:36;25.58;;;18.13;;
25936;SDS011;13733;51.178;4.450;2022-07-30T04:01:04;28.85;;;17.42;;
25936;SDS011;13733;51.178;4.450;2022-07-30T04:03:31;23.30;;;16.83;;
25936;SDS011;13733;51.178;4.450;2022-07-30T04:06:01;24.48;;;16.08;;
25936;SDS011;13733;51.178;4.450;2022-07-30T04:08:27;25.50;;;15.60;;
25936;SDS011;13733;51.178;4.450;2022-07-30T04:10:53;26.33;;;15.52;;
25936;SDS011;13733;51.178;4.450;2022-07-30T04:13:38;25.35;;;16.02;;
25936;SDS011;13733;51.178;4.450;2022-07-30T04:16:15;33.22;;;16.23;;
25936;SDS011;13733;51.178;4.450;2022-07-30T04:18:47;24.58;;;15.05;;
25936;SDS011;13733;51.178;4.450;2022-07-30T04:21:17;25.98;;;14.38;;
25936;SDS011;13733;51.178;4.450;2022-07-30T04:23:45;22.30;;;14.35;;
25936;SDS011;13733;51.178;4.450;2022-07-30T04:26:13;26.45;;;13.20;;
25936;SDS011;13733;51.178;4.450;2022-07-30T04:28:40;17.02;;;12.65;;
25936;SDS011;13733;51.178;4.450;2022-07-30T04:31:06;20.35;;;14.10;;
25936;SDS011;13733;51.178;4.450;2022-07-30T04:33:32;22.75;;;14.30;;
25936;SDS011;13733;51.178;4.450;2022-07-30T04:36:07;17.02;;;11.93;;
25936;SDS011;13733;51.178;4.450;2022-07-30T04:38:36;19.52;;;12.30;;
25936;SDS011;13733;51.178;4.450;2022-07-30T04:41:01;17.58;;;12.90;;
25936;SDS011;13733;51.178;4.450;2022-07-30T04:43:35;19.33;;;12.35;;
25936;SDS011;13733;51.178;4.450;2022-07-30T04:46:00;17.17;;;12.15;;
25936;SDS011;13733;51.178;4.450;2022-07-30T04:48:27;15.13;;;10.75;;
25936;SDS011;13733;51.178;4.450;2022-07-30T04:53:39;20.92;;;12.15;;
25936;SDS011;13733;51.178;4.450;2022-07-30T04:56:09;16.15;;;11.27;;
25936;SDS011;13733;51.178;4.450;2022-07-30T04:58:36;17.15;;;11.02;;
25936;SDS011;13733;51.178;4.450;2022-07-30T05:01:07;15.15;;;10.75;;
25936;SDS011;13733;51.178;4.450;2022-07-30T05:03:34;17.77;;;11.00;;
25936;SDS011;13733;51.178;4.450;2022-07-30T05:06:01;20.92;;;11.13;;
25936;SDS011;13733;51.178;4.450;2022-07-30T05:08:33;18.58;;;10.77;;
25936;SDS011;13733;51.178;4.450;2022-07-30T05:11:03;18.05;;;11.57;;
25936;SDS011;13733;51.178;4.450;2022-07-30T05:13:30;18.40;;;11.10;;
25936;SDS011;13733;51.178;4.450;2022-07-30T05:15:55;19.00;;;9.77;;
25936;SDS011;13733;51.178;4.450;2022-07-30T05:18:22;23.45;;;10.48;;
25936;SDS011;13733;51.178;4.450;2022-07-30T05:20:48;15.40;;;9.85;;
25936;SDS011;13733;51.178;4.450;2022-07-30T05:23:34;18.60;;;9.95;;
25936;SDS011;13733;51.178;4.450;2022-07-30T05:26:20;14.25;;;9.32;;
25936;SDS011;13733;51.178;4.450;2022-07-30T05:28:49;15.60;;;9.50;;
25936;SDS011;13733;51.178;4.450;2022-07-30T05:31:18;15.07;;;9.50;;
25936;SDS011;13733;51.178;4.450;2022-07-30T05:33:51;15.60;;;9.15;;
25936;SDS011;13733;51.178;4.450;2022-07-30T05:36:18;17.80;;;9.90;;
25936;SDS011;13733;51.178;4.450;2022-07-30T05:38:45;12.32;;;8.02;;
25936;SDS011;13733;51.178;4.450;2022-07-30T05:41:45;17.58;;;9.43;;
25936;SDS011;13733;51.178;4.450;2022-07-30T05:44:16;16.15;;;9.52;;
25936;SDS011;13733;51.178;4.450;2022-07-30T05:46:42;15.63;;;8.85;;
25936;SDS011;13733;51.178;4.450;2022-07-30T05:49:07;15.65;;;9.20;;
25936;SDS011;13733;51.178;4.450;2022-07-30T05:51:33;13.60;;;8.13;;
25936;SDS011;13733;51.178;4.450;2022-07-30T05:53:59;14.80;;;7.80;;
25936;SDS011;13733;51.178;4.450;2022-07-30T05:56:45;17.20;;;8.90;;
25936;SDS011;13733;51.178;4.450;2022-07-30T05:59:31;11.75;;;8.10;;
25936;SDS011;13733;51.178;4.450;2022-07-30T06:02:08;15.98;;;8.50;;
25936;SDS011;13733;51.178;4.450;2022-07-30T06:05:12;17.13;;;9.45;;
25936;SDS011;13733;51.178;4.450;2022-07-30T06:07:38;14.48;;;7.60;;
25936;SDS011;13733;51.178;4.450;2022-07-30T06:10:06;12.80;;;7.78;;
25936;SDS011;13733;51.178;4.450;2022-07-30T06:12:32;17.38;;;7.30;;
25936;SDS011;13733;51.178;4.450;2022-07-30T06:14:58;13.35;;;8.60;;
25936;SDS011;13733;51.178;4.450;2022-07-30T06:17:31;16.80;;;8.57;;
25936;SDS011;13733;51.178;4.450;2022-07-30T06:20:09;12.27;;;7.80;;
25936;SDS011;13733;51.178;4.450;2022-07-30T06:22:58;10.23;;;6.93;;
25936;SDS011;13733;51.178;4.450;2022-07-30T06:25:34;12.65;;;6.40;;
25936;SDS011;13733;51.178;4.450;2022-07-30T06:28:00;11.77;;;6.30;;
25936;SDS011;13733;51.178;4.450;2022-07-30T06:30:26;14.73;;;7.03;;
25936;SDS011;13733;51.178;4.450;2022-07-30T06:32:54;16.27;;;7.10;;
25936;SDS011;13733;51.178;4.450;2022-07-30T06:35:20;8.45;;;5.80;;
25936;SDS011;13733;51.178;4.450;2022-07-30T06:37:46;14.85;;;7.72;;
25936;SDS011;13733;51.178;4.450;2022-07-30T06:40:12;14.27;;;8.82;;
25936;SDS011;13733;51.178;4.450;2022-07-30T06:43:02;17.77;;;9.27;;
25936;SDS011;13733;51.178;4.450;2022-07-30T06:45:34;10.63;;;7.47;;
25936;SDS011;13733;51.178;4.450;2022-07-30T06:48:21;12.45;;;7.85;;
25936;SDS011;13733;51.178;4.450;2022-07-30T06:50:47;12.10;;;8.07;;
25936;SDS011;13733;51.178;4.450;2022-07-30T06:53:12;13.77;;;7.55;;
25936;SDS011;13733;51.178;4.450;2022-07-30T06:55:57;14.73;;;7.80;;
25936;SDS011;13733;51.178;4.450;2022-07-30T06:58:24;11.73;;;6.78;;
25936;SDS011;13733;51.178;4.450;2022-07-30T07:01:17;11.93;;;6.70;;
25936;SDS011;13733;51.178;4.450;2022-07-30T07:03:43;13.82;;;7.70;;
25936;SDS011;13733;51.178;4.450;2022-07-30T07:06:08;12.32;;;7.38;;
25936;SDS011;13733;51.178;4.450;2022-07-30T07:08:36;12.00;;;6.72;;
25936;SDS011;13733;51.178;4.450;2022-07-30T07:11:04;14.63;;;6.43;;
25936;SDS011;13733;51.178;4.450;2022-07-30T07:13:39;13.80;;;7.22;;
25936;SDS011;13733;51.178;4.450;2022-07-30T07:16:09;14.55;;;6.60;;
25936;SDS011;13733;51.178;4.450;2022-07-30T07:18:39;13.52;;;7.13;;
25936;SDS011;13733;51.178;4.450;2022-07-30T07:21:05;14.02;;;7.40;;
25936;SDS011;13733;51.178;4.450;2022-07-30T07:23:32;9.77;;;6.38;;
25936;SDS011;13733;51.178;4.450;2022-07-30T07:26:00;11.90;;;6.13;;
25936;SDS011;13733;51.178;4.450;2022-07-30T07:28:26;12.60;;;7.22;;
25936;SDS011;13733;51.178;4.450;2022-07-30T07:30:52;8.85;;;6.28;;
25936;SDS011;13733;51.178;4.450;2022-07-30T07:33:18;9.38;;;7.07;;
25936;SDS011;13733;51.178;4.450;2022-07-30T07:35:45;15.80;;;7.22;;
25936;SDS011;13733;51.178;4.450;2022-07-30T07:38:11;16.70;;;6.65;;
25936;SDS011;13733;51.178;4.450;2022-07-30T07:40:37;13.32;;;6.15;;
25936;SDS011;13733;51.178;4.450;2022-07-30T07:43:03;15.70;;;7.30;;
25936;SDS011;13733;51.178;4.450;2022-07-30T07:45:30;17.80;;;6.43;;
25936;SDS011;13733;51.178;4.450;2022-07-30T07:48:03;16.30;;;6.50;;
25936;SDS011;13733;51.178;4.450;2022-07-30T07:50:46;10.07;;;4.88;;
25936;SDS011;13733;51.178;4.450;2022-07-30T07:53:23;10.15;;;5.32;;
25936;SDS011;13733;51.178;4.450;2022-07-30T07:55:50;14.60;;;6.13;;
25936;SDS011;13733;51.178;4.450;2022-07-30T07:58:17;12.23;;;6.07;;
25936;SDS011;13733;51.178;4.450;2022-07-30T08:00:43;9.90;;;5.18;;
25936;SDS011;13733;51.178;4.450;2022-07-30T08:03:09;11.65;;;5.30;;
25936;SDS011;13733;51.178;4.450;2022-07-30T08:05:36;13.80;;;5.28;;
25936;SDS011;13733;51.178;4.450;2022-07-30T08:08:19;10.35;;;4.57;;
25936;SDS011;13733;51.178;4.450;2022-07-30T08:11:04;9.60;;;4.28;;
25936;SDS011;13733;51.178;4.450;2022-07-30T08:13:49;10.60;;;5.00;;
25936;SDS011;13733;51.178;4.450;2022-07-30T08:16:33;15.07;;;4.97;;
25936;SDS011;13733;51.178;4.450;2022-07-30T08:19:17;8.60;;;4.78;;
25936;SDS011;13733;51.178;4.450;2022-07-30T08:21:52;6.68;;;4.05;;
25936;SDS011;13733;51.178;4.450;2022-07-30T08:24:18;7.82;;;4.70;;
25936;SDS011;13733;51.178;4.450;2022-07-30T08:26:44;5.70;;;3.50;;
25936;SDS011;13733;51.178;4.450;2022-07-30T08:29:10;10.88;;;4.50;;
25936;SDS011;13733;51.178;4.450;2022-07-30T08:31:36;9.20;;;3.83;;
25936;SDS011;13733;51.178;4.450;2022-07-30T08:34:02;7.55;;;3.90;;
25936;SDS011;13733;51.178;4.450;2022-07-30T08:36:28;8.63;;;4.20;;
25936;SDS011;13733;51.178;4.450;2022-07-30T08:38:53;7.43;;;3.53;;
25936;SDS011;13733;51.178;4.450;2022-07-30T08:41:20;8.57;;;4.20;;
25936;SDS011;13733;51.178;4.450;2022-07-30T08:43:46;7.13;;;3.80;;
25936;SDS011;13733;51.178;4.450;2022-07-30T08:46:16;8.13;;;3.80;;
25936;SDS011;13733;51.178;4.450;2022-07-30T08:48:53;11.07;;;3.90;;
25936;SDS011;13733;51.178;4.450;2022-07-30T08:51:19;11.18;;;5.50;;
25936;SDS011;13733;51.178;4.450;2022-07-30T08:53:59;8.20;;;3.72;;
25936;SDS011;13733;51.178;4.450;2022-07-30T08:56:26;12.45;;;4.10;;
25936;SDS011;13733;51.178;4.450;2022-07-30T08:58:52;9.27;;;3.72;;
25936;SDS011;13733;51.178;4.450;2022-07-30T09:01:19;7.18;;;3.42;;
25936;SDS011;13733;51.178;4.450;2022-07-30T09:03:46;9.25;;;3.58;;
25936;SDS011;13733;51.178;4.450;2022-07-30T09:06:13;9.70;;;4.65;;
25936;SDS011;13733;51.178;4.450;2022-07-30T09:08:40;10.65;;;4.18;;
25936;SDS011;13733;51.178;4.450;2022-07-30T09:11:06;10.75;;;3.78;;
25936;SDS011;13733;51.178;4.450;2022-07-30T09:13:33;8.80;;;4.13;;
25936;SDS011;13733;51.178;4.450;2022-07-30T09:16:05;9.95;;;3.88;;
25936;SDS011;13733;51.178;4.450;2022-07-30T09:18:36;10.35;;;4.15;;
25936;SDS011;13733;51.178;4.450;2022-07-30T09:24:10;8.18;;;3.13;;
25936;SDS011;13733;51.178;4.450;2022-07-30T09:26:56;9.52;;;3.88;;
25936;SDS011;13733;51.178;4.450;2022-07-30T09:29:42;9.52;;;4.07;;
25936;SDS011;13733;51.178;4.450;2022-07-30T09:32:30;8.32;;;3.08;;
25936;SDS011;13733;51.178;4.450;2022-07-30T09:35:33;5.40;;;3.17;;
25936;SDS011;13733;51.178;4.450;2022-07-30T09:38:09;8.60;;;3.90;;
25936;SDS011;13733;51.178;4.450;2022-07-30T09:40:50;10.98;;;4.03;;
25936;SDS011;13733;51.178;4.450;2022-07-30T09:43:27;9.25;;;3.13;;
25936;SDS011;13733;51.178;4.450;2022-07-30T09:46:02;5.55;;;3.30;;
25936;SDS011;13733;51.178;4.450;2022-07-30T09:48:29;6.47;;;3.08;;
25936;SDS011;13733;51.178;4.450;2022-07-30T09:50:55;7.50;;;3.38;;
25936;SDS011;13733;51.178;4.450;2022-07-30T09:53:20;11.98;;;3.40;;
25936;SDS011;13733;51.178;4.450;2022-07-30T09:55:48;9.35;;;3.00;;
25936;SDS011;13733;51.178;4.450;2022-07-30T09:58:15;5.38;;;3.00;;
25936;SDS011;13733;51.178;4.450;2022-07-30T10:00:41;7.53;;;2.95;;
25936;SDS011;13733;51.178;4.450;2022-07-30T10:03:28;6.63;;;2.67;;
25936;SDS011;13733;51.178;4.450;2022-07-30T10:06:12;5.03;;;2.40;;
25936;SDS011;13733;51.178;4.450;2022-07-30T10:08:46;9.10;;;2.70;;
25936;SDS011;13733;51.178;4.450;2022-07-30T10:11:16;6.68;;;3.22;;
25936;SDS011;13733;51.178;4.450;2022-07-30T10:13:54;8.52;;;3.30;;
25936;SDS011;13733;51.178;4.450;2022-07-30T10:16:26;8.13;;;3.40;;
25936;SDS011;13733;51.178;4.450;2022-07-30T10:18:54;7.60;;;3.55;;
25936;SDS011;13733;51.178;4.450;2022-07-30T10:21:44;5.47;;;2.75;;
25936;SDS011;13733;51.178;4.450;2022-07-30T10:24:17;9.80;;;2.90;;
25936;SDS011;13733;51.178;4.450;2022-07-30T10:27:03;4.57;;;3.03;;
25936;SDS011;13733;51.178;4.450;2022-07-30T10:29:51;9.07;;;3.30;;
25936;SDS011;13733;51.178;4.450;2022-07-30T10:32:17;11.77;;;3.20;;
25936;SDS011;13733;51.178;4.450;2022-07-30T10:34:43;9.23;;;2.70;;
25936;SDS011;13733;51.178;4.450;2022-07-30T10:37:09;9.38;;;2.78;;
25936;SDS011;13733;51.178;4.450;2022-07-30T10:39:38;10.88;;;3.28;;
25936;SDS011;13733;51.178;4.450;2022-07-30T10:47:22;7.10;;;3.78;;
25936;SDS011;13733;51.178;4.450;2022-07-30T10:50:03;7.97;;;3.63;;
25936;SDS011;13733;51.178;4.450;2022-07-30T10:52:45;9.27;;;3.05;;
25936;SDS011;13733;51.178;4.450;2022-07-30T10:55:20;10.05;;;3.50;;
25936;SDS011;13733;51.178;4.450;2022-07-30T11:00:23;5.43;;;3.10;;
25936;SDS011;13733;51.178;4.450;2022-07-30T11:03:09;7.85;;;3.05;;
25936;SDS011;13733;51.178;4.450;2022-07-30T11:05:44;7.57;;;3.30;;
25936;SDS011;13733;51.178;4.450;2022-07-30T11:08:27;7.03;;;2.70;;
25936;SDS011;13733;51.178;4.450;2022-07-30T11:10:54;10.88;;;3.10;;
25936;SDS011;13733;51.178;4.450;2022-07-30T11:13:47;6.78;;;2.92;;
25936;SDS011;13733;51.178;4.450;2022-07-30T11:16:19;6.65;;;2.70;;
25936;SDS011;13733;51.178;4.450;2022-07-30T11:19:03;4.32;;;2.50;;
25936;SDS011;13733;51.178;4.450;2022-07-30T11:21:29;6.88;;;2.70;;
25936;SDS011;13733;51.178;4.450;2022-07-30T11:23:57;5.50;;;2.17;;
25936;SDS011;13733;51.178;4.450;2022-07-30T11:29:31;5.65;;;2.45;;
25936;SDS011;13733;51.178;4.450;2022-07-30T11:34:49;11.40;;;2.67;;
25936;SDS011;13733;51.178;4.450;2022-07-30T11:37:14;10.98;;;2.70;;
25936;SDS011;13733;51.178;4.450;2022-07-30T11:42:25;6.18;;;2.22;;
25936;SDS011;13733;51.178;4.450;2022-07-30T11:47:41;7.75;;;3.00;;
25936;SDS011;13733;51.178;4.450;2022-07-30T11:50:15;7.28;;;2.40;;
25936;SDS011;13733;51.178;4.450;2022-07-30T11:52:53;8.43;;;2.10;;
25936;SDS011;13733;51.178;4.450;2022-07-30T11:55:37;8.15;;;3.05;;
25936;SDS011;13733;51.178;4.450;2022-07-30T11:58:06;7.45;;;2.90;;
25936;SDS011;13733;51.178;4.450;2022-07-30T12:00:34;8.00;;;2.30;;
25936;SDS011;13733;51.178;4.450;2022-07-30T12:03:10;6.32;;;2.50;;
25936;SDS011;13733;51.178;4.450;2022-07-30T12:05:38;4.80;;;2.60;;
25936;SDS011;13733;51.178;4.450;2022-07-30T12:08:04;6.80;;;2.53;;
25936;SDS011;13733;51.178;4.450;2022-07-30T12:10:31;8.15;;;2.90;;
25936;SDS011;13733;51.178;4.450;2022-07-30T12:15:36;5.82;;;2.28;;
25936;SDS011;13733;51.178;4.450;2022-07-30T12:18:05;11.10;;;2.58;;
25936;SDS011;13733;51.178;4.450;2022-07-30T12:20:32;13.00;;;2.50;;
25936;SDS011;13733;51.178;4.450;2022-07-30T12:22:58;7.20;;;2.30;;
25936;SDS011;13733;51.178;4.450;2022-07-30T12:25:24;7.50;;;2.17;;
25936;SDS011;13733;51.178;4.450;2022-07-30T12:27:50;8.77;;;2.80;;
25936;SDS011;13733;51.178;4.450;2022-07-30T12:30:16;7.72;;;2.65;;
25936;SDS011;13733;51.178;4.450;2022-07-30T12:32:44;5.55;;;2.22;;
25936;SDS011;13733;51.178;4.450;2022-07-30T12:35:10;8.43;;;2.60;;
25936;SDS011;13733;51.178;4.450;2022-07-30T12:37:37;5.75;;;1.92;;
25936;SDS011;13733;51.178;4.450;2022-07-30T12:40:07;5.25;;;2.00;;
25936;SDS011;13733;51.178;4.450;2022-07-30T12:42:49;5.28;;;1.83;;
25936;SDS011;13733;51.178;4.450;2022-07-30T12:45:27;5.35;;;1.90;;
25936;SDS011;13733;51.178;4.450;2022-07-30T12:47:54;6.90;;;2.13;;
25936;SDS011;13733;51.178;4.450;2022-07-30T12:50:21;10.20;;;2.30;;
25936;SDS011;13733;51.178;4.450;2022-07-30T12:52:48;5.70;;;2.10;;
25936;SDS011;13733;51.178;4.450;2022-07-30T12:55:16;8.65;;;2.28;;
25936;SDS011;13733;51.178;4.450;2022-07-30T12:57:53;6.40;;;2.33;;
25936;SDS011;13733;51.178;4.450;2022-07-30T13:00:21;8.10;;;2.65;;
25936;SDS011;13733;51.178;4.450;2022-07-30T13:02:48;6.93;;;2.53;;
25936;SDS011;13733;51.178;4.450;2022-07-30T13:05:13;7.15;;;2.92;;
25936;SDS011;13733;51.178;4.450;2022-07-30T13:07:53;6.53;;;2.30;;
25936;SDS011;13733;51.178;4.450;2022-07-30T13:10:22;6.60;;;2.65;;
25936;SDS011;13733;51.178;4.450;2022-07-30T13:12:48;5.35;;;2.00;;
25936;SDS011;13733;51.178;4.450;2022-07-30T13:15:21;11.40;;;2.80;;
25936;SDS011;13733;51.178;4.450;2022-07-30T13:17:47;7.35;;;2.58;;
25936;SDS011;13733;51.178;4.450;2022-07-30T13:20:13;6.00;;;2.10;;
25936;SDS011;13733;51.178;4.450;2022-07-30T13:22:41;7.20;;;2.08;;
25936;SDS011;13733;51.178;4.450;2022-07-30T13:25:07;7.53;;;2.60;;
25936;SDS011;13733;51.178;4.450;2022-07-30T13:27:33;7.32;;;2.33;;
25936;SDS011;13733;51.178;4.450;2022-07-30T13:30:01;4.25;;;1.98;;
25936;SDS011;13733;51.178;4.450;2022-07-30T13:32:28;8.43;;;2.25;;
25936;SDS011;13733;51.178;4.450;2022-07-30T13:34:55;8.23;;;2.70;;
25936;SDS011;13733;51.178;4.450;2022-07-30T13:37:22;9.32;;;2.40;;
25936;SDS011;13733;51.178;4.450;2022-07-30T13:39:47;5.50;;;2.42;;
25936;SDS011;13733;51.178;4.450;2022-07-30T13:42:13;8.32;;;2.08;;
25936;SDS011;13733;51.178;4.450;2022-07-30T13:44:39;9.10;;;2.45;;
25936;SDS011;13733;51.178;4.450;2022-07-30T13:47:05;7.72;;;2.25;;
25936;SDS011;13733;51.178;4.450;2022-07-30T13:49:33;6.50;;;2.03;;
25936;SDS011;13733;51.178;4.450;2022-07-30T13:52:01;8.68;;;1.73;;
25936;SDS011;13733;51.178;4.450;2022-07-30T13:54:27;8.68;;;1.90;;
25936;SDS011;13733;51.178;4.450;2022-07-30T13:56:54;5.28;;;1.88;;
25936;SDS011;13733;51.178;4.450;2022-07-30T13:59:20;9.25;;;1.95;;
25936;SDS011;13733;51.178;4.450;2022-07-30T14:01:46;7.53;;;2.17;;
25936;SDS011;13733;51.178;4.450;2022-07-30T14:04:11;6.85;;;2.00;;
25936;SDS011;13733;51.178;4.450;2022-07-30T14:06:37;9.90;;;2.60;;
25936;SDS011;13733;51.178;4.450;2022-07-30T14:09:03;7.20;;;1.88;;
25936;SDS011;13733;51.178;4.450;2022-07-30T14:11:29;4.45;;;2.40;;
25936;SDS011;13733;51.178;4.450;2022-07-30T14:13:56;4.82;;;1.70;;
25936;SDS011;13733;51.178;4.450;2022-07-30T14:16:21;5.93;;;2.13;;
25936;SDS011;13733;51.178;4.450;2022-07-30T14:18:47;8.10;;;2.22;;
25936;SDS011;13733;51.178;4.450;2022-07-30T14:21:13;9.55;;;2.47;;
25936;SDS011;13733;51.178;4.450;2022-07-30T14:23:39;6.68;;;2.15;;
25936;SDS011;13733;51.178;4.450;2022-07-30T14:26:05;6.97;;;1.83;;
25936;SDS011;13733;51.178;4.450;2022-07-30T14:28:30;6.00;;;2.40;;
25936;SDS011;13733;51.178;4.450;2022-07-30T14:30:58;6.63;;;2.10;;
25936;SDS011;13733;51.178;4.450;2022-07-30T14:33:23;5.55;;;2.25;;
25936;SDS011;13733;51.178;4.450;2022-07-30T14:35:49;9.48;;;2.25;;
25936;SDS011;13733;51.178;4.450;2022-07-30T14:38:15;6.72;;;2.05;;
25936;SDS011;13733;51.178;4.450;2022-07-30T14:40:40;6.97;;;2.03;;
25936;SDS011;13733;51.178;4.450;2022-07-30T14:43:07;7.72;;;2.22;;
25936;SDS011;13733;51.178;4.450;2022-07-30T14:45:33;4.43;;;1.90;;
25936;SDS011;13733;51.178;4.450;2022-07-30T14:48:00;5.72;;;2.00;;
25936;SDS011;13733;51.178;4.450;2022-07-30T14:50:26;4.38;;;1.95;;
25936;SDS011;13733;51.178;4.450;2022-07-30T14:52:51;7.43;;;2.00;;
25936;SDS011;13733;51.178;4.450;2022-07-30T14:55:17;3.83;;;1.80;;
25936;SDS011;13733;51.178;4.450;2022-07-30T14:57:43;6.18;;;2.28;;
25936;SDS011;13733;51.178;4.450;2022-07-30T15:00:09;9.57;;;2.33;;
25936;SDS011;13733;51.178;4.450;2022-07-30T15:02:36;5.28;;;2.40;;
25936;SDS011;13733;51.178;4.450;2022-07-30T15:05:02;9.52;;;2.55;;
25936;SDS011;13733;51.178;4.450;2022-07-30T15:07:28;7.55;;;2.42;;
25936;SDS011;13733;51.178;4.450;2022-07-30T15:09:54;5.60;;;1.80;;
25936;SDS011;13733;51.178;4.450;2022-07-30T15:12:20;5.57;;;2.17;;
25936;SDS011;13733;51.178;4.450;2022-07-30T15:14:46;7.93;;;2.42;;
25936;SDS011;13733;51.178;4.450;2022-07-30T15:17:13;8.90;;;2.22;;
25936;SDS011;13733;51.178;4.450;2022-07-30T15:19:39;5.57;;;1.90;;
25936;SDS011;13733;51.178;4.450;2022-07-30T15:22:05;5.45;;;1.90;;
25936;SDS011;13733;51.178;4.450;2022-07-30T15:24:31;6.35;;;1.83;;
25936;SDS011;13733;51.178;4.450;2022-07-30T15:26:57;6.65;;;2.30;;
25936;SDS011;13733;51.178;4.450;2022-07-30T15:29:22;7.70;;;2.03;;
25936;SDS011;13733;51.178;4.450;2022-07-30T15:31:51;8.00;;;2.08;;
25936;SDS011;13733;51.178;4.450;2022-07-30T15:34:17;5.15;;;2.03;;